Time;durP1;ratioP1;P1;durP2;ratioP2;P2;SDS_P1;SDS_P2;PMS_P1;PMS_P2;Temp;Humidity;BMP_temperature;BMP_pressure;BME280_temperature;BME280_humidity;BME280_pressure;Samples;Min_cycle;Max_cycle;Signal;HPM_P1;HPM_P2
2024/01/12 00:01:12;;;;;;;24.60;8.30;;;;;;;-1.30;100.00;99879.00;107886;1284;22431;-51
2024/01/12 00:03:37;;;;;;;18.20;7.80;;;;;;;-1.31;100.00;99873.49;107844;1308;22416;-50
2024/01/12 00:06:02;;;;;;;14.20;6.90;;;;;;;-1.38;100.00;99870.20;107852;1285;22246;-51
2024/01/12 00:08:28;;;;;;;22.20;8.40;;;;;;;-1.40;100.00;99873.99;107855;1304;22215;-48
2024/01/12 00:10:54;;;;;;;16.50;8.10;;;;;;;-1.48;100.00;99876.38;107830;1308;22311;-49
2024/01/12 00:13:20;;;;;;;15.50;7.70;;;;;;;-1.47;100.00;99879.14;107860;1290;22245;-47
2024/01/12 00:15:45;;;;;;;16.40;7.80;;;;;;;-1.47;100.00;99885.67;107595;1308;22475;-50
2024/01/12 00:18:10;;;;;;;17.20;7.90;;;;;;;-1.48;100.00;99884.97;107818;1308;22495;-50
2024/01/12 00:20:39;;;;;;;15.20;7.50;;;;;;;-1.52;100.00;99883.92;107872;1284;22257;-49
2024/01/12 00:23:04;;;;;;;18.10;7.70;;;;;;;-1.52;100.00;99883.23;107861;1297;22834;-51
2024/01/12 00:25:30;;;;;;;15.10;6.80;;;;;;;-1.58;100.00;99882.70;107853;1308;22495;-48
2024/01/12 00:27:55;;;;;;;19.60;8.30;;;;;;;-1.61;100.00;99881.14;107839;1288;22283;-52
2024/01/12 00:30:20;;;;;;;18.10;7.10;;;;;;;-1.59;100.00;99882.53;107842;1308;22259;-51
2024/01/12 00:32:45;;;;;;;12.90;6.90;;;;;;;-1.61;100.00;99886.65;107838;1308;23114;-52
2024/01/12 00:35:11;;;;;;;15.20;6.40;;;;;;;-1.62;100.00;99889.73;107841;1308;22257;-48
2024/01/12 00:37:37;;;;;;;15.50;6.60;;;;;;;-1.63;100.00;99891.29;107830;1284;22188;-52
2024/01/12 00:40:03;;;;;;;16.30;6.40;;;;;;;-1.65;100.00;99890.77;107856;1285;22261;-52
2024/01/12 00:42:28;;;;;;;19.30;7.00;;;;;;;-1.70;100.00;99889.19;107856;1308;22247;-53
2024/01/12 00:44:53;;;;;;;18.80;6.60;;;;;;;-1.78;100.00;99891.57;107827;1289;22284;-50
2024/01/12 00:47:19;;;;;;;13.70;6.10;;;;;;;-1.88;100.00;99892.73;107826;1308;23045;-51
2024/01/12 00:49:44;;;;;;;13.60;5.80;;;;;;;-1.85;100.00;99893.93;107846;1289;23199;-51
2024/01/12 00:52:12;;;;;;;19.50;6.00;;;;;;;-1.88;100.00;99901.49;107840;1289;22248;-49
2024/01/12 00:54:38;;;;;;;13.00;4.80;;;;;;;-1.96;100.00;99902.13;107836;1308;22900;-48
2024/01/12 00:57:03;;;;;;;11.10;5.80;;;;;;;-2.07;100.00;99900.87;107853;1308;22503;-48
2024/01/12 00:59:29;;;;;;;15.70;6.40;;;;;;;-2.09;100.00;99902.06;107852;1307;22245;-49
2024/01/12 01:01:57;;;;;;;11.90;5.90;;;;;;;-2.10;100.00;99907.39;107823;1308;22433;-48
2024/01/12 01:04:25;;;;;;;18.20;5.20;;;;;;;-2.14;100.00;99906.52;107814;1284;22412;-52
2024/01/12 01:06:51;;;;;;;14.50;6.00;;;;;;;-2.14;100.00;99908.73;107833;1307;23346;-50
2024/01/12 01:09:16;;;;;;;18.00;6.10;;;;;;;-2.15;100.00;99911.81;107861;1288;22491;-48
2024/01/12 01:11:41;;;;;;;18.40;5.40;;;;;;;-2.15;100.00;99912.51;107866;1289;22246;-49
2024/01/12 01:14:07;;;;;;;23.40;7.30;;;;;;;-2.18;100.00;99910.95;107806;1284;22253;-48
2024/01/12 01:16:32;;;;;;;17.50;7.60;;;;;;;-2.18;100.00;99905.96;107815;1285;22416;-52
2024/01/12 01:18:57;;;;;;;16.00;6.80;;;;;;;-2.16;100.00;99905.29;107846;1289;22408;-48
2024/01/12 01:21:22;;;;;;;15.90;6.20;;;;;;;-2.14;100.00;99903.08;107834;1308;22591;-50
2024/01/12 01:23:48;;;;;;;9.90;6.10;;;;;;;-2.16;100.00;99906.14;107828;1307;22440;-52
2024/01/12 01:26:13;;;;;;;16.40;5.90;;;;;;;-2.15;100.00;99907.01;107820;1308;23125;-49
2024/01/12 01:28:38;;;;;;;13.60;6.00;;;;;;;-2.17;100.00;99904.42;107837;1308;22350;-53
2024/01/12 01:31:03;;;;;;;18.20;6.80;;;;;;;-2.22;100.00;99906.27;107849;1285;22301;-53
2024/01/12 01:33:29;;;;;;;15.30;6.50;;;;;;;-2.24;100.00;99905.76;107822;1285;22947;-50
2024/01/12 01:35:54;;;;;;;16.80;7.00;;;;;;;-2.26;100.00;99908.14;107832;1289;22276;-50
2024/01/12 01:38:19;;;;;;;18.30;6.60;;;;;;;-2.25;100.00;99907.29;107829;1289;22424;-48
2024/01/12 01:40:45;;;;;;;13.90;5.90;;;;;;;-2.25;100.00;99909.18;107828;1308;23077;-53
2024/01/12 01:43:11;;;;;;;14.90;6.30;;;;;;;-2.30;100.00;99913.78;107855;1308;22432;-51
2024/01/12 01:45:36;;;;;;;11.80;6.20;;;;;;;-2.38;100.00;99917.86;107851;1285;22399;-49
2024/01/12 01:48:05;;;;;;;13.70;5.60;;;;;;;-2.40;100.00;99921.96;107828;1288;22452;-51
2024/01/12 01:50:31;;;;;;;14.10;6.30;;;;;;;-2.47;100.00;99925.16;107843;1288;22236;-51
2024/01/12 01:52:57;;;;;;;11.80;5.70;;;;;;;-2.49;100.00;99930.14;107857;1308;22402;-53
2024/01/12 01:55:23;;;;;;;18.30;6.10;;;;;;;-2.47;100.00;99931.17;107814;1308;22264;-51
2024/01/12 01:57:50;;;;;;;20.20;6.20;;;;;;;-2.47;99.98;99933.74;107836;1297;22513;-50
2024/01/12 02:00:16;;;;;;;13.00;6.20;;;;;;;-2.49;99.92;99932.53;107849;1288;23011;-48
2024/01/12 02:02:41;;;;;;;14.50;5.10;;;;;;;-2.54;99.68;99930.95;107791;1308;22244;-50
2024/01/12 02:05:08;;;;;;;12.40;5.10;;;;;;;-2.62;99.64;99933.97;107859;1289;22287;-48
2024/01/12 02:07:36;;;;;;;13.00;5.00;;;;;;;-2.67;99.56;99939.25;107858;1307;22257;-48
2024/01/12 02:10:03;;;;;;;9.70;4.90;;;;;;;-2.71;99.47;99942.30;107828;1308;22971;-52
2024/01/12 02:12:29;;;;;;;14.30;5.00;;;;;;;-2.76;99.45;99950.67;107849;1308;23012;-49
2024/01/12 02:14:54;;;;;;;16.90;5.30;;;;;;;-2.79;99.45;99952.36;107828;1308;22463;-49
2024/01/12 02:17:19;;;;;;;13.00;5.30;;;;;;;-2.78;99.32;99957.17;107821;1308;22314;-50
2024/01/12 02:19:45;;;;;;;11.70;4.70;;;;;;;-2.79;99.21;99959.92;107844;1285;22493;-50
2024/01/12 02:22:10;;;;;;;15.70;5.30;;;;;;;-2.86;98.99;99960.52;107807;1285;22755;-49
2024/01/12 02:24:35;;;;;;;17.00;5.70;;;;;;;-2.94;99.18;99958.21;107804;1285;23046;-48
2024/01/12 02:27:01;;;;;;;15.60;5.60;;;;;;;-2.90;99.28;99959.28;107841;1308;22480;-48
2024/01/12 02:29:26;;;;;;;13.30;5.00;;;;;;;-2.92;99.10;99960.47;107824;1308;22322;-49
2024/01/12 02:31:52;;;;;;;9.80;5.40;;;;;;;-2.96;98.79;99958.88;107847;1307;22455;-52
2024/01/12 02:34:17;;;;;;;15.60;5.00;;;;;;;-3.05;98.68;99959.48;107842;1288;23027;-49
2024/01/12 02:36:43;;;;;;;10.50;4.30;;;;;;;-3.06;98.75;99955.17;107848;1308;22464;-48
2024/01/12 02:39:08;;;;;;;11.20;4.80;;;;;;;-3.02;98.57;99944.92;107804;1308;22315;-51
2024/01/12 02:41:33;;;;;;;12.20;4.40;;;;;;;-3.06;98.04;99939.40;107840;1308;23015;-49
2024/01/12 02:43:59;;;;;;;10.70;4.40;;;;;;;-3.04;98.10;99936.84;107829;1308;22954;-49
2024/01/12 02:46:24;;;;;;;9.80;3.90;;;;;;;-3.05;97.67;99941.80;107844;1291;22424;-49
2024/01/12 02:48:50;;;;;;;11.40;4.30;;;;;;;-3.06;97.38;99945.57;107831;1308;22291;-50
2024/01/12 02:51:15;;;;;;;9.20;4.20;;;;;;;-3.06;97.22;99949.85;107856;1289;23302;-48
2024/01/12 02:53:41;;;;;;;11.20;4.00;;;;;;;-3.13;96.86;99954.08;107831;1289;22426;-49
2024/01/12 02:56:06;;;;;;;9.20;4.10;;;;;;;-3.14;96.89;99956.48;107845;1287;22363;-49
2024/01/12 02:58:31;;;;;;;12.50;4.60;;;;;;;-3.18;96.80;99960.70;107842;1308;23422;-48
2024/01/12 03:00:57;;;;;;;9.90;4.30;;;;;;;-3.21;96.80;99961.88;107842;1284;23146;-49
2024/01/12 03:03:22;;;;;;;11.40;4.70;;;;;;;-3.20;96.73;99963.27;107821;1291;23197;-51
2024/01/12 03:05:48;;;;;;;10.70;4.00;;;;;;;-3.25;96.21;99969.04;107828;1291;22484;-50
2024/01/12 03:08:25;;;;;;;12.00;4.80;;;;;;;-3.25;96.50;99966.98;107835;1308;22243;-51
2024/01/12 03:10:50;;;;;;;9.60;4.00;;;;;;;-3.30;96.48;99961.77;107841;1308;22449;-48
2024/01/12 03:13:15;;;;;;;13.20;4.30;;;;;;;-3.33;96.37;99954.20;107821;1291;22326;-48
2024/01/12 03:15:41;;;;;;;9.40;3.20;;;;;;;-3.41;96.02;99957.36;107818;1308;22500;-48
2024/01/12 03:18:06;;;;;;;5.90;3.50;;;;;;;-3.45;95.91;99956.30;107825;1297;22239;-48
2024/01/12 03:21:50;;;;;;;8.20;3.90;;;;;;;-3.44;95.95;99955.61;106736;1305;545160;-48
2024/01/12 03:24:15;;;;;;;14.60;4.80;;;;;;;-3.45;96.02;99960.05;107178;1304;22304;-50
2024/01/12 03:26:40;;;;;;;11.00;3.80;;;;;;;-3.48;95.80;99958.83;107225;1295;22318;-48
2024/01/12 03:29:06;;;;;;;13.10;4.00;;;;;;;-3.45;95.90;99953.52;107184;1314;23062;-49
2024/01/12 03:31:31;;;;;;;11.20;4.10;;;;;;;-3.54;95.28;99956.34;107194;1295;22250;-48
2024/01/12 03:33:57;;;;;;;8.10;3.90;;;;;;;-3.53;95.52;99957.91;107195;1314;23086;-49
2024/01/12 03:36:22;;;;;;;9.40;4.20;;;;;;;-3.53;95.57;99960.81;107227;1313;157747;-48
2024/01/12 03:38:48;;;;;;;9.30;4.50;;;;;;;-3.58;95.37;99963.49;107361;1295;23094;-49
2024/01/12 03:41:14;;;;;;;10.90;4.10;;;;;;;-3.64;94.87;99964.09;107362;1312;22352;-51
2024/01/12 03:43:39;;;;;;;12.50;4.30;;;;;;;-3.61;95.13;99964.83;107354;1312;22338;-49
2024/01/12 03:46:05;;;;;;;8.80;4.10;;;;;;;-3.61;95.13;99973.06;107356;1294;22419;-49
2024/01/12 03:48:30;;;;;;;11.60;4.20;;;;;;;-3.60;95.23;99970.66;107367;1291;22774;-48
2024/01/12 03:50:56;;;;;;;7.20;4.00;;;;;;;-3.59;95.26;99969.31;107381;1310;22419;-51
2024/01/12 03:53:21;;;;;;;10.10;4.50;;;;;;;-3.58;95.27;99969.33;107360;1294;22428;-49
2024/01/12 03:55:46;;;;;;;15.20;4.40;;;;;;;-3.55;95.22;99970.38;107340;1313;22432;-48
2024/01/12 03:58:12;;;;;;;9.30;4.30;;;;;;;-3.55;94.91;99973.30;107354;1294;23021;-48
2024/01/12 04:00:37;;;;;;;9.30;4.40;;;;;;;-3.61;94.37;99975.45;107340;1291;22460;-47
2024/01/12 04:03:03;;;;;;;12.70;4.70;;;;;;;-3.62;94.53;99978.52;107335;1313;22248;-50
2024/01/12 04:05:28;;;;;;;17.00;4.50;;;;;;;-3.60;94.50;99980.10;107332;1291;22297;-48
2024/01/12 04:07:54;;;;;;;11.20;4.70;;;;;;;-3.61;94.37;99979.22;107299;1312;22281;-47
2024/01/12 04:10:19;;;;;;;13.30;4.60;;;;;;;-3.64;94.03;99976.61;107361;1312;22482;-47
2024/01/12 04:12:45;;;;;;;9.00;4.60;;;;;;;-3.69;94.10;99974.66;107349;1313;22267;-48
2024/01/12 04:15:10;;;;;;;14.60;4.20;;;;;;;-3.72;94.22;99973.95;107356;1313;23061;-51
2024/01/12 04:17:36;;;;;;;14.40;5.30;;;;;;;-3.71;94.27;99976.17;107337;1313;24228;-48
2024/01/12 04:20:01;;;;;;;13.40;5.30;;;;;;;-3.73;94.13;99973.41;107366;1292;22271;-48
2024/01/12 04:22:26;;;;;;;12.40;5.40;;;;;;;-3.78;93.81;99981.90;107378;1312;23075;-51
2024/01/12 04:24:51;;;;;;;13.00;5.60;;;;;;;-3.75;93.98;99979.73;107383;1291;22274;-51
2024/01/12 04:27:17;;;;;;;13.60;5.30;;;;;;;-3.75;93.86;99977.32;107394;1293;22476;-48
2024/01/12 04:29:42;;;;;;;11.10;4.90;;;;;;;-3.80;93.79;99978.44;107387;1312;22255;-48
2024/01/12 04:32:07;;;;;;;15.00;5.40;;;;;;;-3.78;93.87;99983.61;107362;1294;22958;-49
2024/01/12 04:34:39;;;;;;;17.40;5.40;;;;;;;-3.80;93.62;99985.31;107352;1313;22318;-50
2024/01/12 04:37:05;;;;;;;15.30;6.80;;;;;;;-3.80;93.67;99985.65;107377;1312;22350;-49
2024/01/12 04:39:31;;;;;;;9.50;4.30;;;;;;;-3.79;93.45;99988.23;107368;1293;22373;-48
2024/01/12 04:41:56;;;;;;;9.20;4.30;;;;;;;-3.79;93.40;99988.08;107388;1294;23015;-49
2024/01/12 04:44:21;;;;;;;14.40;5.20;;;;;;;-3.75;93.48;99987.26;107362;1312;22248;-48
2024/01/12 04:46:47;;;;;;;9.50;4.60;;;;;;;-3.69;93.44;99985.80;107092;1289;22598;-45
2024/01/12 04:49:12;;;;;;;11.90;4.90;;;;;;;-3.67;93.33;99985.49;106233;1312;22574;-45
2024/01/12 04:51:38;;;;;;;22.40;8.60;;;;;;;-3.67;93.09;99984.29;106234;1313;22586;-48
2024/01/12 04:54:03;;;;;;;15.70;6.60;;;;;;;-3.64;93.15;99993.06;106243;1312;25352;-46
2024/01/12 04:56:28;;;;;;;11.60;4.70;;;;;;;-3.61;93.16;99996.70;106410;1291;22264;-47
2024/01/12 04:58:54;;;;;;;14.30;4.90;;;;;;;-3.63;92.85;100002.85;107376;1312;22249;-48
2024/01/12 05:01:19;;;;;;;15.60;5.00;;;;;;;-3.67;92.66;100009.30;107370;1312;22421;-47
2024/01/12 05:03:44;;;;;;;13.70;5.20;;;;;;;-3.71;92.64;100009.59;107352;1312;22420;-50
2024/01/12 05:06:10;;;;;;;9.40;4.40;;;;;;;-3.70;92.79;100007.04;107354;1312;23039;-46
2024/01/12 05:08:37;;;;;;;13.00;5.00;;;;;;;-3.66;92.81;100002.64;107369;1312;22449;-49
2024/01/12 05:11:05;;;;;;;12.30;5.00;;;;;;;-3.69;92.56;100005.85;107366;1312;23110;-48
2024/01/12 05:13:30;;;;;;;12.30;5.40;;;;;;;-3.74;92.19;100006.97;107383;1312;22248;-51
2024/01/12 05:15:55;;;;;;;15.60;4.80;;;;;;;-3.76;92.33;100010.73;107354;1293;22495;-49
2024/01/12 05:18:21;;;;;;;10.90;4.60;;;;;;;-3.74;92.63;100015.20;107375;1312;22942;-48
2024/01/12 05:20:47;;;;;;;16.90;5.70;;;;;;;-3.74;92.64;100017.42;107395;1312;23347;-48
2024/01/12 05:23:12;;;;;;;11.70;5.40;;;;;;;-3.75;92.60;100018.10;107357;1312;22282;-49
2024/01/12 05:25:37;;;;;;;9.90;5.10;;;;;;;-3.76;92.71;100018.60;107371;1312;22362;-52
2024/01/12 05:28:03;;;;;;;10.10;4.80;;;;;;;-3.77;92.97;100015.67;107379;1293;22978;-47
2024/01/12 05:30:30;;;;;;;15.30;5.40;;;;;;;-3.76;93.01;100017.56;107372;1312;22357;-51
2024/01/12 05:32:55;;;;;;;13.90;5.60;;;;;;;-3.77;93.06;100016.71;107375;1293;22171;-48
2024/01/12 05:35:20;;;;;;;20.40;8.40;;;;;;;-3.77;93.22;100016.36;107367;1312;22282;-50
2024/01/12 05:37:46;;;;;;;26.50;10.60;;;;;;;-3.74;93.33;100019.31;107363;1301;22252;-47
2024/01/12 05:40:18;;;;;;;23.60;8.90;;;;;;;-3.74;93.04;100021.20;107384;1293;22244;-49
2024/01/12 05:42:44;;;;;;;31.30;10.90;;;;;;;-3.75;92.94;100021.18;107389;1312;22273;-51
2024/01/12 05:45:09;;;;;;;23.50;9.40;;;;;;;-3.77;93.14;100024.77;107358;1312;22279;-50
2024/01/12 05:47:36;;;;;;;23.70;9.70;;;;;;;-3.77;93.06;100028.00;107378;1291;22364;-48
2024/01/12 05:50:01;;;;;;;23.70;9.70;;;;;;;-3.78;93.14;100029.20;107390;1312;22265;-50
2024/01/12 05:52:27;;;;;;;24.30;9.40;;;;;;;-3.76;93.38;100030.95;107282;1294;22444;-51
2024/01/12 05:54:55;;;;;;;21.10;10.30;;;;;;;-3.76;93.83;100032.65;107404;1289;22256;-47
2024/01/12 05:57:20;;;;;;;;;;;;;;;-3.76;93.80;100035.40;107389;1312;22545;-52
2024/01/12 05:59:45;;;;;;;28.60;12.10;;;;;;;-3.76;93.47;100041.21;107369;1312;23265;-49
2024/01/12 06:02:14;;;;;;;30.10;12.80;;;;;;;-3.76;93.58;100041.89;107357;1294;23034;-48
2024/01/12 06:04:39;;;;;;;30.60;14.00;;;;;;;-3.73;93.43;100043.14;107378;1292;23567;-51
2024/01/12 06:07:04;;;;;;;33.50;14.00;;;;;;;-3.74;93.20;100041.08;107366;1312;22336;-47
2024/01/12 06:09:29;;;;;;;28.40;12.40;;;;;;;-3.71;93.34;100040.44;107380;1294;22515;-50
2024/01/12 06:11:55;;;;;;;36.90;15.40;;;;;;;-3.68;93.19;100045.10;107386;1312;23208;-48
2024/01/12 06:14:20;;;;;;;37.40;14.20;;;;;;;-3.68;93.07;100047.16;107362;1290;22367;-47
2024/01/12 06:16:45;;;;;;;39.30;14.80;;;;;;;-3.66;93.27;100050.10;107389;1312;23136;-52
2024/01/12 06:19:10;;;;;;;29.80;12.30;;;;;;;-3.63;93.32;100055.45;107387;1294;22290;-50
2024/01/12 06:21:36;;;;;;;29.40;11.90;;;;;;;-3.60;93.01;100057.21;107379;1294;22427;-52
2024/01/12 06:24:01;;;;;;;19.60;10.00;;;;;;;-3.56;93.08;100056.24;107372;1312;23126;-51
2024/01/12 06:26:26;;;;;;;23.10;10.70;;;;;;;-3.58;92.97;100054.34;107380;1294;22882;-51
2024/01/12 06:28:52;;;;;;;24.20;9.80;;;;;;;-3.57;93.06;100054.34;107382;1312;22266;-53
2024/01/12 06:31:17;;;;;;;30.30;11.30;;;;;;;-3.56;92.99;100051.95;107380;1312;22302;-47
2024/01/12 06:33:42;;;;;;;33.80;13.50;;;;;;;-3.58;92.70;100052.80;107383;1289;22230;-47
2024/01/12 06:36:08;;;;;;;35.30;14.70;;;;;;;-3.53;92.66;100056.30;107380;1294;22435;-49
2024/01/12 06:38:33;;;;;;;53.30;18.00;;;;;;;-3.52;92.34;100053.58;107360;1312;22192;-47
2024/01/12 06:40:58;;;;;;;58.10;18.50;;;;;;;-3.54;92.22;100053.36;107393;1294;22236;-49
2024/01/12 06:43:23;;;;;;;38.10;15.30;;;;;;;-3.52;92.19;100051.50;107385;1312;22302;-49
2024/01/12 06:45:49;;;;;;;40.50;12.30;;;;;;;-3.51;91.84;100045.01;107389;1293;22435;-49
2024/01/12 06:48:14;;;;;;;37.10;13.30;;;;;;;-3.51;91.64;100044.32;107384;1291;22931;-52
2024/01/12 06:50:39;;;;;;;26.00;11.60;;;;;;;-3.52;91.48;100041.91;107392;1312;22363;-51
2024/01/12 06:53:08;;;;;;;25.90;9.50;;;;;;;-3.54;91.46;100037.75;107393;1312;23493;-49
2024/01/12 06:55:37;;;;;;;25.40;9.90;;;;;;;-3.55;91.45;100038.60;107358;1312;22261;-49
2024/01/12 06:58:03;;;;;;;28.80;11.90;;;;;;;-3.55;91.34;100036.72;107395;1293;22249;-51
2024/01/12 07:00:28;;;;;;;33.70;12.60;;;;;;;-3.55;91.38;100031.92;107392;1312;22255;-50
2024/01/12 07:02:54;;;;;;;27.40;10.80;;;;;;;-3.57;91.47;100025.55;107402;1312;22298;-49
2024/01/12 07:05:19;;;;;;;26.80;12.40;;;;;;;-3.57;91.74;100027.10;107374;1291;23054;-52
2024/01/12 07:07:44;;;;;;;29.80;14.00;;;;;;;-3.55;91.76;100027.11;107363;1293;22251;-51
2024/01/12 07:10:11;;;;;;;44.90;16.20;;;;;;;-3.54;91.88;100023.70;107364;1312;22324;-50
2024/01/12 07:12:37;;;;;;;50.30;17.80;;;;;;;-3.54;91.67;100023.54;107401;1312;23082;-49
2024/01/12 07:15:03;;;;;;;69.10;23.30;;;;;;;-3.54;91.80;100024.06;107385;1291;22251;-51
2024/01/12 07:17:28;;;;;;;73.60;25.50;;;;;;;-3.54;91.83;100023.71;107394;1291;22230;-48
2024/01/12 07:19:53;;;;;;;67.30;24.80;;;;;;;-3.54;91.82;100024.21;107398;1291;22928;-47
2024/01/12 07:22:19;;;;;;;75.70;28.40;;;;;;;-3.55;91.41;100026.09;107386;1304;22483;-49
2024/01/12 07:24:44;;;;;;;57.70;21.40;;;;;;;-3.62;90.86;100027.54;107371;1297;22268;-51
2024/01/12 07:27:09;;;;;;;53.90;19.90;;;;;;;-3.67;91.03;100024.39;107436;1312;22319;-51
2024/01/12 07:29:34;;;;;;;51.60;21.00;;;;;;;-3.69;91.22;100025.05;107416;1291;22941;-52
2024/01/12 07:32:00;;;;;;;60.80;27.50;;;;;;;-3.70;91.46;100026.06;107427;1312;22432;-50
2024/01/12 07:34:25;;;;;;;74.30;35.30;;;;;;;-3.71;91.26;100026.02;107413;1293;22252;-50
2024/01/12 07:36:50;;;;;;;51.00;23.30;;;;;;;-3.72;91.36;100022.44;107407;1293;22356;-49
2024/01/12 07:42:18;;;;;;;63.10;23.30;;;;;;;-3.69;91.83;100019.90;107369;1312;22257;-52
2024/01/12 07:44:43;;;;;;;64.80;22.90;;;;;;;-3.68;91.57;100022.14;107424;1292;23005;-52
2024/01/12 07:47:09;;;;;;;61.90;25.00;;;;;;;-3.68;91.47;100029.52;107417;1291;22503;-52
2024/01/12 07:49:34;;;;;;;62.10;26.00;;;;;;;-3.69;91.21;100032.77;107389;1312;22253;-52
2024/01/12 07:51:59;;;;;;;62.80;24.20;;;;;;;-3.65;91.31;100032.64;107420;1312;22972;-51
2024/01/12 07:54:25;;;;;;;78.90;31.40;;;;;;;-3.62;91.09;100036.11;107423;1294;22867;-53
2024/01/12 07:56:50;;;;;;;51.70;24.60;;;;;;;-3.58;90.99;100035.48;107419;1304;22229;-52
2024/01/12 07:59:15;;;;;;;88.00;36.70;;;;;;;-3.60;90.53;100036.30;107421;1291;22321;-52
2024/01/12 08:01:41;;;;;;;65.80;28.80;;;;;;;-3.62;90.59;100040.23;107436;1293;22567;-49
2024/01/12 08:04:06;;;;;;;56.70;24.00;;;;;;;-3.58;90.78;100040.61;107400;1288;22575;-50
2024/01/12 08:06:32;;;;;;;39.40;18.50;;;;;;;-3.58;90.62;100039.42;107431;1288;22226;-50
2024/01/12 08:08:57;;;;;;;38.80;17.10;;;;;;;-3.61;90.63;100038.52;107420;1291;22300;-48
2024/01/12 08:11:23;;;;;;;42.00;16.90;;;;;;;-3.57;90.89;100034.81;107418;1312;22401;-48
2024/01/12 08:13:48;;;;;;;28.60;14.00;;;;;;;-3.49;90.86;100034.57;107432;1295;22261;-48
2024/01/12 08:16:13;;;;;;;30.50;14.40;;;;;;;-3.47;90.76;100037.34;107397;1294;22510;-50
2024/01/12 08:18:38;;;;;;;33.90;13.70;;;;;;;-3.46;90.54;100041.13;107425;1294;22325;-50
2024/01/12 08:21:04;;;;;;;32.60;14.50;;;;;;;-3.45;90.52;100039.60;107420;1294;23237;-49
2024/01/12 08:23:29;;;;;;;29.30;14.30;;;;;;;-3.42;90.45;100039.45;107441;1312;22201;-50
2024/01/12 08:25:54;;;;;;;34.90;14.50;;;;;;;-3.35;90.57;100045.05;107412;1294;22463;-51
2024/01/12 08:28:20;;;;;;;29.80;13.90;;;;;;;-3.24;90.75;100042.27;107416;1312;22261;-51
2024/01/12 08:30:45;;;;;;;43.40;18.80;;;;;;;-3.17;90.51;100042.70;107410;1293;22283;-50
2024/01/12 08:33:11;;;;;;;49.50;20.60;;;;;;;-3.14;90.14;100040.16;107437;1293;23350;-52
2024/01/12 08:35:36;;;;;;;37.80;15.50;;;;;;;-3.06;90.02;100041.11;107459;1295;22241;-53
2024/01/12 08:38:02;;;;;;;40.70;17.40;;;;;;;-3.03;89.68;100036.87;107430;1288;22334;-48
2024/01/12 08:40:27;;;;;;;49.60;20.40;;;;;;;-2.96;89.73;100035.93;107422;1293;22232;-52
2024/01/12 08:42:53;;;;;;;40.00;16.40;;;;;;;-2.87;89.96;100033.80;107409;1291;22316;-51
2024/01/12 08:45:18;;;;;;;38.60;16.30;;;;;;;-2.82;89.49;100032.98;107447;1294;22286;-51
2024/01/12 08:47:44;;;;;;;35.80;17.20;;;;;;;-2.79;89.04;100036.80;107407;1289;22585;-49
2024/01/12 08:50:09;;;;;;;59.50;23.20;;;;;;;-2.74;89.00;100038.40;107418;1312;22374;-53
2024/01/12 08:52:34;;;;;;;61.90;25.50;;;;;;;-2.67;88.87;100037.10;107452;1294;22223;-51
2024/01/12 08:55:00;;;;;;;56.40;20.10;;;;;;;-2.63;88.80;100036.09;107417;1300;22246;-52
2024/01/12 08:57:25;;;;;;;40.70;16.40;;;;;;;-2.61;88.35;100031.66;107411;1311;22392;-50
2024/01/12 08:59:51;;;;;;;53.00;20.80;;;;;;;-2.57;87.96;100025.00;107434;1297;22410;-51
2024/01/12 09:02:16;;;;;;;42.90;18.80;;;;;;;-2.52;88.09;100019.21;107433;1312;22493;-51
2024/01/12 09:04:42;;;;;;;42.30;17.30;;;;;;;-2.48;88.37;100016.67;107444;1312;22213;-49
2024/01/12 09:07:07;;;;;;;35.90;16.00;;;;;;;-2.42;88.31;100016.39;107421;1293;22315;-52
2024/01/12 09:09:32;;;;;;;52.00;22.70;;;;;;;-2.32;88.15;100014.59;107415;1312;22249;-50
2024/01/12 09:11:57;;;;;;;116.10;43.00;;;;;;;-2.29;87.62;100014.61;107435;1312;22233;-52
2024/01/12 09:14:23;;;;;;;110.50;43.80;;;;;;;-2.23;87.64;100015.69;107434;1300;23072;-50
2024/01/12 09:16:48;;;;;;;34.30;15.80;;;;;;;-2.20;87.06;100017.43;107430;1291;22271;-47
2024/01/12 09:19:13;;;;;;;26.10;12.20;;;;;;;-2.14;86.89;100015.77;107419;1294;22133;-46
2024/01/12 09:21:38;;;;;;;21.40;11.10;;;;;;;-2.10;86.44;100019.91;107408;1298;22379;-51
2024/01/12 09:24:04;;;;;;;21.80;9.50;;;;;;;-2.06;85.87;100022.00;107434;1312;22339;-50
2024/01/12 09:26:29;;;;;;;26.50;10.30;;;;;;;-2.04;85.69;100024.60;107438;1312;22214;-50
2024/01/12 09:28:55;;;;;;;24.00;10.50;;;;;;;-2.00;86.24;100020.85;107431;1293;22233;-51
2024/01/12 09:31:20;;;;;;;20.50;8.80;;;;;;;-2.00;86.02;100020.68;107430;1294;22942;-51
2024/01/12 09:33:45;;;;;;;19.10;8.80;;;;;;;-1.95;85.74;100020.71;107447;1291;24214;-50
2024/01/12 09:36:11;;;;;;;21.70;9.70;;;;;;;-1.89;85.85;100021.77;107436;1312;22243;-52
2024/01/12 09:38:36;;;;;;;23.30;10.60;;;;;;;-1.86;85.26;100022.48;107442;1292;22227;-50
2024/01/12 09:41:09;;;;;;;23.80;10.50;;;;;;;-1.83;84.87;100028.70;107327;1294;23013;-51
2024/01/12 09:43:35;;;;;;;22.30;10.80;;;;;;;-1.82;85.14;100029.57;107424;1293;22232;-50
2024/01/12 09:46:04;;;;;;;26.80;13.50;;;;;;;-1.89;84.70;100027.98;107446;1292;22242;-52
2024/01/12 09:48:30;;;;;;;34.00;12.80;;;;;;;-1.93;84.88;100022.62;107423;1295;22353;-51
2024/01/12 09:50:56;;;;;;;32.40;13.70;;;;;;;-1.88;85.59;100021.11;107420;1312;22232;-52
2024/01/12 09:53:22;;;;;;;22.20;11.00;;;;;;;-1.80;85.63;100024.95;107422;1298;23022;-50
2024/01/12 09:55:48;;;;;;;23.20;10.30;;;;;;;-1.71;85.69;100017.61;107436;1289;22324;-48
2024/01/12 09:58:16;;;;;;;29.30;12.20;;;;;;;-1.65;85.39;100021.42;107427;1298;22827;-52
2024/01/12 10:00:43;;;;;;;;;;;;;;;-1.59;85.03;100015.95;107423;1312;23323;-51
2024/01/12 10:03:10;;;;;;;29.60;12.60;;;;;;;-1.49;85.17;100014.11;107435;1303;22409;-47
2024/01/12 10:05:36;;;;;;;29.20;12.20;;;;;;;-1.43;84.84;100006.75;107409;1312;22248;-51
2024/01/12 10:08:02;;;;;;;28.10;12.40;;;;;;;-1.34;85.00;100004.05;107434;1295;22302;-50
2024/01/12 10:10:28;;;;;;;26.70;10.90;;;;;;;-1.30;84.62;100003.71;107441;1301;22217;-51
2024/01/12 10:12:54;;;;;;;27.30;12.40;;;;;;;-1.22;84.17;99997.03;107428;1312;22289;-52
2024/01/12 10:15:19;;;;;;;26.60;12.30;;;;;;;-1.18;83.93;99994.13;107424;1312;22925;-48
2024/01/12 10:17:44;;;;;;;30.10;13.30;;;;;;;-1.18;83.22;99985.54;107418;1304;22980;-49
2024/01/12 10:20:10;;;;;;;21.90;10.70;;;;;;;-1.16;83.08;99980.02;107406;1294;22246;-49
2024/01/12 10:22:36;;;;;;;19.50;10.10;;;;;;;-1.11;82.87;99984.36;107410;1295;22225;-52
2024/01/12 10:25:03;;;;;;;21.30;9.00;;;;;;;-0.98;83.59;99985.42;107433;1295;22258;-49
2024/01/12 10:27:29;;;;;;;;;;;;;;;-0.91;83.62;99985.27;107433;1312;22431;-52
2024/01/12 10:29:58;;;;;;;21.10;10.10;;;;;;;-0.86;83.14;99982.34;107433;1288;22260;-51
2024/01/12 10:32:24;;;;;;;22.40;10.40;;;;;;;-0.77;83.36;99978.41;107435;1312;22402;-50
2024/01/12 10:34:52;;;;;;;21.30;9.80;;;;;;;-0.75;83.43;99970.66;107463;1292;23036;-48
2024/01/12 10:37:18;;;;;;;17.90;8.90;;;;;;;-0.69;83.53;99960.17;107483;1307;22354;-50
2024/01/12 10:39:46;;;;;;;15.20;7.70;;;;;;;-0.72;82.59;99950.87;107456;1305;22433;-53
2024/01/12 10:42:12;;;;;;;;;;;;;;;-0.69;82.74;99939.16;107435;1293;22457;-52
2024/01/12 10:44:40;;;;;;;19.00;9.30;;;;;;;-0.68;82.10;99934.34;107413;1298;22445;-51
2024/01/12 10:47:09;;;;;;;20.60;9.20;;;;;;;-0.63;82.59;99934.52;107466;1288;22325;-53
2024/01/12 10:49:48;;;;;;;23.50;9.50;;;;;;;-0.59;82.53;99933.84;107441;1311;22254;-48
2024/01/12 10:52:40;;;;;;;22.90;8.60;;;;;;;-0.48;82.81;99932.80;107483;1311;22237;-50
2024/01/12 10:55:10;;;;;;;39.80;12.80;;;;;;;-0.48;81.63;99933.31;107504;1294;22837;-50
2024/01/12 10:57:37;;;;;;;25.00;10.20;;;;;;;-0.40;81.46;99933.48;107506;1288;23166;-51
2024/01/12 11:00:05;;;;;;;16.80;9.00;;;;;;;-0.33;81.04;99927.10;107499;1291;22327;-51
2024/01/12 11:02:33;;;;;;;;;;;;;;;-0.27;80.76;99923.48;107524;1291;22430;-50
2024/01/12 11:05:00;;;;;;;19.80;7.80;;;;;;;-0.26;80.14;99924.69;107502;1311;22457;-49
2024/01/12 11:07:25;;;;;;;18.90;9.60;;;;;;;-0.32;79.40;99920.56;107409;1311;22256;-50
2024/01/12 11:09:51;;;;;;;18.50;9.40;;;;;;;-0.29;79.73;99916.42;107520;1294;22211;-52